Time;durP1;ratioP1;P1;durP2;ratioP2;P2;SDS_P1;SDS_P2;PMS_P1;PMS_P2;Temp;Humidity;BMP_temperature;BMP_pressure;BME280_temperature;BME280_humidity;BME280_pressure;Samples;Min_cycle;Max_cycle;Signal;HPM_P1;HPM_P2
2022/05/17 00:01:12;;;;;;;18.90;8.65;;;16.90;99.90;;;;;;5014536;28;20042;-78
2022/05/17 00:03:37;;;;;;;14.18;7.88;;;16.90;99.90;;;;;;4996954;28;20019;-76
2022/05/17 00:06:05;;;;;;;16.25;8.18;;;16.90;99.90;;;;;;5014431;28;20030;-76
2022/05/17 00:08:31;;;;;;;15.23;8.15;;;16.90;99.90;;;;;;5014548;28;20022;-78
2022/05/17 00:10:57;;;;;;;16.98;8.40;;;16.90;99.90;;;;;;4996745;28;20030;-80
2022/05/17 00:13:22;;;;;;;14.50;7.80;;;16.90;99.90;;;;;;5014279;28;20027;-76
2022/05/17 00:15:51;;;;;;;23.25;10.07;;;16.90;99.90;;;;;;4996557;28;20044;-75
2022/05/17 00:18:19;;;;;;;21.70;10.13;;;16.90;99.90;;;;;;4995953;28;20449;-76
2022/05/17 00:20:46;;;;;;;24.27;10.77;;;16.90;99.90;;;;;;4996952;28;20049;-77
2022/05/17 00:23:15;;;;;;;21.40;10.35;;;17.00;99.90;;;;;;5014177;28;20018;-78
2022/05/17 00:25:41;;;;;;;18.88;11.15;;;17.00;99.90;;;;;;4996914;28;20030;-78
2022/05/17 00:28:07;;;;;;;21.35;10.88;;;16.90;99.90;;;;;;5013942;28;20018;-77
2022/05/17 00:30:34;;;;;;;24.95;9.70;;;17.00;99.90;;;;;;4996435;28;20045;-78
2022/05/17 00:32:59;;;;;;;20.33;11.18;;;16.90;99.90;;;;;;5014535;28;20038;-75
2022/05/17 00:35:25;;;;;;;22.65;12.15;;;16.90;99.90;;;;;;5013449;28;20065;-76
2022/05/17 00:37:51;;;;;;;25.33;11.75;;;16.90;99.90;;;;;;4995950;28;20049;-78
2022/05/17 00:40:17;;;;;;;29.13;12.98;;;16.90;99.90;;;;;;5014207;28;20077;-77
2022/05/17 00:42:43;;;;;;;25.90;11.95;;;16.90;99.90;;;;;;5003801;28;20022;-76
2022/05/17 00:45:09;;;;;;;26.55;10.57;;;16.90;99.90;;;;;;5013610;28;20026;-76
2022/05/17 00:48:04;;;;;;;23.90;12.32;;;16.90;99.90;;;;;;5013821;28;20058;-78
2022/05/17 00:50:46;;;;;;;29.70;12.95;;;16.80;99.90;;;;;;4996370;28;20050;-79
2022/05/17 00:53:20;;;;;;;26.48;12.20;;;16.80;99.90;;;;;;5013351;28;20081;-78
2022/05/17 00:55:52;;;;;;;27.95;13.57;;;16.90;99.90;;;;;;5013714;28;20481;-77
2022/05/17 00:58:23;;;;;;;22.42;10.90;;;16.80;99.90;;;;;;5013371;28;20022;-77
2022/05/17 01:00:56;;;;;;;29.35;12.93;;;16.80;99.90;;;;;;5013577;28;20023;-75
2022/05/17 01:03:24;;;;;;;18.98;10.25;;;16.70;99.90;;;;;;5013314;28;20077;-79
2022/05/17 01:05:54;;;;;;;25.13;11.30;;;16.80;99.90;;;;;;5012971;28;20098;-76
2022/05/17 01:08:22;;;;;;;28.40;11.38;;;16.80;99.90;;;;;;5013859;28;20053;-77
2022/05/17 01:10:47;;;;;;;26.27;12.02;;;16.80;99.90;;;;;;5013344;28;20026;-78
2022/05/17 01:15:58;;;;;;;22.35;11.65;;;16.70;99.90;;;;;;5013373;28;20383;-78
2022/05/17 01:18:24;;;;;;;19.88;11.30;;;16.70;99.90;;;;;;5012764;28;20449;-80
2022/05/17 01:20:50;;;;;;;23.30;10.77;;;16.70;99.90;;;;;;5013002;28;20041;-75
2022/05/17 01:23:16;;;;;;;28.40;11.70;;;16.70;99.90;;;;;;5013475;28;20022;-76
2022/05/17 01:25:44;;;;;;;22.95;12.23;;;16.70;99.90;;;;;;4994882;28;20044;-77
2022/05/17 01:28:12;;;;;;;31.45;11.77;;;16.60;99.90;;;;;;5012982;28;20038;-76
2022/05/17 01:30:42;;;;;;;20.63;10.70;;;16.60;99.90;;;;;;5013278;28;20030;-76
2022/05/17 01:33:17;;;;;;;28.20;11.98;;;16.60;99.90;;;;;;5012851;28;20033;-73
2022/05/17 01:35:42;;;;;;;24.88;11.20;;;16.60;99.90;;;;;;5012370;28;20031;-76
2022/05/17 01:38:09;;;;;;;25.20;11.52;;;16.60;99.90;;;;;;5013032;28;20765;-75
2022/05/17 01:40:35;;;;;;;24.63;11.48;;;16.50;99.90;;;;;;5012480;28;20037;-77
2022/05/17 01:43:01;;;;;;;27.85;12.43;;;16.50;99.90;;;;;;5012662;28;20405;-74
2022/05/17 01:45:27;;;;;;;23.90;11.45;;;16.50;99.90;;;;;;5012796;28;20061;-75
2022/05/17 01:47:53;;;;;;;30.85;11.32;;;16.50;99.90;;;;;;5012647;28;21068;-76
2022/05/17 01:50:23;;;;;;;26.60;11.43;;;16.50;99.90;;;;;;5010925;28;20019;-75
2022/05/17 01:52:49;;;;;;;20.77;11.15;;;16.50;99.90;;;;;;5010382;28;20057;-76
2022/05/17 01:55:15;;;;;;;24.52;10.88;;;16.40;99.90;;;;;;5012320;28;20042;-74
2022/05/17 01:57:40;;;;;;;29.33;10.55;;;16.50;99.90;;;;;;5012459;28;20038;-75
2022/05/17 02:00:08;;;;;;;28.52;12.57;;;16.50;99.90;;;;;;5012891;28;20033;-77
2022/05/17 02:02:34;;;;;;;28.80;11.98;;;16.50;99.90;;;;;;5001378;28;20025;-76
2022/05/17 02:05:00;;;;;;;23.48;10.73;;;16.40;99.90;;;;;;5013129;28;20018;-77
2022/05/17 02:07:25;;;;;;;20.08;10.23;;;16.40;99.90;;;;;;4994916;28;20057;-77
2022/05/17 02:09:51;;;;;;;22.83;11.55;;;16.50;99.90;;;;;;4994712;28;20372;-77
2022/05/17 02:12:17;;;;;;;24.88;10.57;;;16.30;99.90;;;;;;5012531;28;20021;-75
2022/05/17 02:14:43;;;;;;;22.75;9.27;;;16.30;99.90;;;;;;5012847;28;20019;-76
2022/05/17 02:17:09;;;;;;;20.33;11.00;;;16.20;99.90;;;;;;5011994;28;20042;-76
2022/05/17 02:19:35;;;;;;;21.58;11.10;;;16.30;99.90;;;;;;5012145;28;20026;-79
2022/05/17 02:22:01;;;;;;;26.55;11.73;;;16.10;99.90;;;;;;4994917;28;20049;-79
2022/05/17 02:24:27;;;;;;;24.65;11.27;;;16.00;99.90;;;;;;5012483;28;20029;-77
2022/05/17 02:26:54;;;;;;;33.33;11.23;;;16.10;99.90;;;;;;5012560;28;20042;-78
2022/05/17 02:29:19;;;;;;;29.00;11.85;;;16.00;99.90;;;;;;5012242;28;20025;-76
2022/05/17 02:31:45;;;;;;;29.92;11.88;;;16.00;99.90;;;;;;5012331;28;20474;-77
2022/05/17 02:34:11;;;;;;;21.33;10.52;;;16.00;99.90;;;;;;5012406;28;20030;-77
2022/05/17 02:36:37;;;;;;;24.77;11.48;;;16.00;99.90;;;;;;5012042;28;20037;-77
2022/05/17 02:39:03;;;;;;;28.70;11.85;;;16.00;99.90;;;;;;4994934;28;20127;-77
2022/05/17 02:41:28;;;;;;;21.25;12.63;;;16.00;99.90;;;;;;5012704;28;20429;-76
2022/05/17 02:43:54;;;;;;;26.38;13.23;;;16.00;99.90;;;;;;5016140;28;20046;-76
2022/05/17 02:46:19;;;;;;;20.63;10.25;;;16.00;99.90;;;;;;5016362;28;20034;-73
2022/05/17 02:48:45;;;;;;;29.35;11.93;;;15.90;99.90;;;;;;5015720;28;20114;-74
2022/05/17 02:51:17;;;;;;;25.80;11.57;;;16.00;99.90;;;;;;4998398;28;20038;-76
2022/05/17 02:53:43;;;;;;;21.08;11.20;;;16.00;99.90;;;;;;5015807;28;20094;-74
2022/05/17 02:56:10;;;;;;;30.30;11.93;;;16.00;99.90;;;;;;5015781;28;20093;-75
2022/05/17 02:58:35;;;;;;;29.45;11.38;;;16.00;99.90;;;;;;5015754;28;20025;-75
2022/05/17 03:01:01;;;;;;;21.77;10.68;;;15.90;99.90;;;;;;5016025;28;20034;-75
2022/05/17 03:03:27;;;;;;;17.45;10.77;;;15.90;99.90;;;;;;5005998;28;20032;-76
2022/05/17 03:05:53;;;;;;;23.48;10.90;;;15.90;99.90;;;;;;5015309;28;20030;-74
2022/05/17 03:08:18;;;;;;;22.10;10.07;;;16.00;99.90;;;;;;4997922;28;20052;-74
2022/05/17 03:10:44;;;;;;;29.27;12.05;;;16.00;99.90;;;;;;5016080;28;20042;-74
2022/05/17 03:13:11;;;;;;;26.45;10.02;;;15.80;99.90;;;;;;5014288;28;20034;-74
2022/05/17 03:15:38;;;;;;;20.45;11.13;;;15.90;99.90;;;;;;5015707;28;20049;-74
2022/05/17 03:18:04;;;;;;;24.02;10.45;;;15.90;99.90;;;;;;4997347;28;20058;-76
2022/05/17 03:20:30;;;;;;;25.88;11.27;;;15.90;99.90;;;;;;4997607;28;20085;-76
2022/05/17 03:22:55;;;;;;;26.25;10.23;;;16.00;99.90;;;;;;5015410;28;21211;-74
2022/05/17 03:25:23;;;;;;;28.27;11.70;;;15.90;99.90;;;;;;4997509;28;20033;-75
2022/05/17 03:27:49;;;;;;;21.77;10.80;;;15.90;99.90;;;;;;5015176;28;20109;-74
2022/05/17 03:30:15;;;;;;;23.70;11.30;;;15.90;99.90;;;;;;5015166;28;20391;-75
2022/05/17 03:32:40;;;;;;;27.25;11.25;;;15.80;99.90;;;;;;4997921;28;20032;-72
2022/05/17 03:35:07;;;;;;;24.95;11.48;;;15.80;99.90;;;;;;4997275;28;20461;-73
2022/05/17 03:37:32;;;;;;;22.45;10.55;;;15.80;99.90;;;;;;5014911;28;20050;-78
2022/05/17 03:39:58;;;;;;;23.45;11.15;;;15.80;99.90;;;;;;5015081;28;20036;-76
2022/05/17 03:42:23;;;;;;;26.42;11.90;;;15.80;99.90;;;;;;5015420;28;20027;-76
2022/05/17 03:44:49;;;;;;;22.80;10.65;;;15.80;99.90;;;;;;5014862;28;21482;-74
2022/05/17 03:47:20;;;;;;;21.20;10.65;;;15.90;99.90;;;;;;5014886;28;20030;-74
2022/05/17 03:49:45;;;;;;;20.75;10.23;;;15.80;99.90;;;;;;4996780;28;20027;-76
2022/05/17 03:52:11;;;;;;;20.15;10.50;;;15.80;99.90;;;;;;5014791;28;20032;-75
2022/05/17 03:54:39;;;;;;;22.98;9.98;;;15.70;99.90;;;;;;5014916;28;20022;-75
2022/05/17 03:57:05;;;;;;;25.90;9.88;;;15.80;99.90;;;;;;5014473;28;20061;-75
2022/05/17 03:59:31;;;;;;;26.65;11.55;;;15.80;99.90;;;;;;5015067;28;20034;-77
2022/05/17 04:01:57;;;;;;;31.58;10.35;;;15.70;99.90;;;;;;5014670;28;20034;-75
2022/05/17 04:04:23;;;;;;;24.27;11.82;;;15.80;99.90;;;;;;4996727;28;20027;-76
2022/05/17 04:06:49;;;;;;;22.67;8.40;;;15.80;99.90;;;;;;5014134;28;20378;-73
2022/05/17 04:09:21;;;;;;;23.80;9.95;;;15.80;99.90;;;;;;5014515;28;20497;-74
2022/05/17 04:11:46;;;;;;;16.58;9.65;;;15.80;99.90;;;;;;5014408;28;20051;-74
2022/05/17 04:14:12;;;;;;;32.08;11.43;;;15.80;99.90;;;;;;5014766;28;20030;-74
2022/05/17 04:16:39;;;;;;;23.25;10.52;;;15.80;99.90;;;;;;4996937;28;20565;-73
2022/05/17 04:19:06;;;;;;;23.05;10.60;;;15.70;99.90;;;;;;5013095;28;20026;-73
2022/05/17 04:21:33;;;;;;;20.17;10.23;;;15.80;99.90;;;;;;5014863;28;20022;-74
2022/05/17 04:23:59;;;;;;;23.25;10.55;;;15.70;99.90;;;;;;5014458;28;20390;-75
2022/05/17 04:26:24;;;;;;;20.35;9.65;;;15.80;99.90;;;;;;5014227;28;20086;-74
2022/05/17 04:28:51;;;;;;;19.30;9.63;;;15.90;99.90;;;;;;5014221;28;20072;-75
2022/05/17 04:31:17;;;;;;;25.95;9.82;;;15.60;99.90;;;;;;4996704;28;20027;-75
2022/05/17 04:33:43;;;;;;;27.00;9.27;;;15.70;99.90;;;;;;5014117;28;20027;-75
2022/05/17 04:36:10;;;;;;;23.15;10.57;;;15.70;99.90;;;;;;5013475;28;20055;-76
2022/05/17 04:38:36;;;;;;;27.00;10.63;;;15.80;99.90;;;;;;5013702;28;20030;-72
2022/05/17 04:41:02;;;;;;;16.75;9.65;;;15.70;99.90;;;;;;5015000;28;20029;-74
2022/05/17 04:43:29;;;;;;;22.45;9.98;;;15.80;99.90;;;;;;5014315;28;20497;-73
2022/05/17 04:45:55;;;;;;;22.27;10.35;;;15.90;99.90;;;;;;5012986;28;21624;-74
2022/05/17 04:48:24;;;;;;;20.08;9.70;;;15.80;99.90;;;;;;5012811;28;20367;-73
2022/05/17 04:50:50;;;;;;;24.27;10.68;;;15.90;99.90;;;;;;5013481;28;20019;-75
2022/05/17 04:53:16;;;;;;;21.65;9.90;;;15.80;99.90;;;;;;5012898;28;20034;-73
2022/05/17 04:55:41;;;;;;;28.15;10.90;;;15.90;99.90;;;;;;4997914;28;20029;-73
2022/05/17 04:58:07;;;;;;;20.08;9.27;;;15.80;99.90;;;;;;5014239;28;20046;-74
2022/05/17 05:00:40;;;;;;;21.98;9.90;;;15.80;99.90;;;;;;5013680;28;20134;-74
2022/05/17 05:03:06;;;;;;;23.83;11.75;;;15.80;99.90;;;;;;5014447;28;20106;-74
2022/05/17 05:05:32;;;;;;;19.73;10.25;;;15.80;99.90;;;;;;5014854;28;20081;-73
2022/05/17 05:07:57;;;;;;;21.95;10.90;;;15.70;99.90;;;;;;5012893;28;20135;-73
2022/05/17 05:10:24;;;;;;;20.95;9.93;;;15.90;99.90;;;;;;5013801;28;20065;-73
2022/05/17 05:12:49;;;;;;;15.52;9.10;;;15.80;99.90;;;;;;5012810;28;20068;-74
2022/05/17 05:15:15;;;;;;;22.77;10.98;;;15.80;99.90;;;;;;5013627;28;20030;-73
2022/05/17 05:17:42;;;;;;;25.63;10.38;;;15.90;99.90;;;;;;5014859;28;20042;-74
2022/05/17 05:20:15;;;;;;;24.15;10.38;;;15.90;99.90;;;;;;5013644;28;20037;-74
2022/05/17 05:22:41;;;;;;;22.52;10.85;;;15.80;99.90;;;;;;5014717;28;20080;-72
2022/05/17 05:25:08;;;;;;;22.15;10.95;;;15.80;99.90;;;;;;5012990;28;20038;-73
2022/05/17 05:27:37;;;;;;;21.35;10.20;;;15.80;99.90;;;;;;5013773;28;20375;-72
2022/05/17 05:30:10;;;;;;;22.05;10.35;;;15.80;99.90;;;;;;5013416;28;20022;-73
2022/05/17 05:32:36;;;;;;;22.33;10.70;;;15.80;99.90;;;;;;5014018;28;20018;-73
2022/05/17 05:35:04;;;;;;;16.73;9.50;;;15.80;99.90;;;;;;5013517;28;20172;-72
2022/05/17 05:37:30;;;;;;;27.70;11.25;;;15.90;99.90;;;;;;4997139;28;20049;-73
2022/05/17 05:39:56;;;;;;;23.83;10.13;;;16.00;99.90;;;;;;5011685;28;20097;-72
2022/05/17 05:42:21;;;;;;;23.17;9.02;;;15.90;99.90;;;;;;5012571;28;20038;-73
2022/05/17 05:44:47;;;;;;;18.67;8.65;;;16.00;99.90;;;;;;5012886;28;20110;-73
2022/05/17 05:47:12;;;;;;;19.80;8.57;;;16.10;99.90;;;;;;5012728;28;20025;-72
2022/05/17 05:49:42;;;;;;;25.90;9.55;;;16.10;99.90;;;;;;5012903;28;20026;-73
2022/05/17 05:52:08;;;;;;;25.50;9.45;;;16.10;99.90;;;;;;5012918;28;20026;-74
2022/05/17 05:54:34;;;;;;;15.57;8.40;;;16.20;99.90;;;;;;5013078;28;20146;-74
2022/05/17 05:57:00;;;;;;;19.92;9.13;;;16.20;99.90;;;;;;5012751;28;20033;-72
2022/05/17 05:59:28;;;;;;;16.88;8.40;;;16.30;99.90;;;;;;5012649;28;20023;-73
2022/05/17 06:01:54;;;;;;;23.83;8.43;;;16.40;99.90;;;;;;5012543;28;20022;-75
2022/05/17 06:04:20;;;;;;;18.40;8.40;;;16.30;99.90;;;;;;5012458;28;20057;-73
2022/05/17 06:06:45;;;;;;;17.90;8.25;;;16.40;99.90;;;;;;5012692;28;20026;-73
2022/05/17 06:09:11;;;;;;;23.02;8.48;;;16.40;99.90;;;;;;5012813;28;20073;-74
2022/05/17 06:11:37;;;;;;;17.25;7.18;;;16.40;99.90;;;;;;5013081;28;20065;-74
2022/05/17 06:14:03;;;;;;;16.98;7.78;;;16.40;99.90;;;;;;4995331;28;20029;-74
2022/05/17 06:16:29;;;;;;;13.38;6.75;;;16.50;99.90;;;;;;5015207;28;20038;-74
2022/05/17 06:18:55;;;;;;;19.42;7.80;;;16.50;99.90;;;;;;5016792;28;20069;-75
2022/05/17 06:21:20;;;;;;;13.10;6.72;;;16.50;99.90;;;;;;5016737;28;20026;-74
2022/05/17 06:23:52;;;;;;;14.63;6.97;;;16.50;99.90;;;;;;5015980;28;20060;-76
2022/05/17 06:26:18;;;;;;;22.17;8.00;;;16.50;99.90;;;;;;5017139;28;20054;-76
2022/05/17 06:28:44;;;;;;;14.82;7.15;;;16.60;99.90;;;;;;5017646;28;20048;-75
2022/05/17 06:31:09;;;;;;;20.75;8.10;;;16.60;99.90;;;;;;5016582;28;20033;-75
2022/05/17 06:33:39;;;;;;;25.52;8.07;;;16.70;99.90;;;;;;5017473;28;20082;-74
2022/05/17 06:36:05;;;;;;;20.30;7.10;;;16.80;99.90;;;;;;4998715;28;20052;-77
2022/05/17 06:38:31;;;;;;;24.52;6.90;;;16.80;99.90;;;;;;5015628;28;20036;-77
2022/05/17 06:40:57;;;;;;;16.98;5.97;;;16.80;99.90;;;;;;5015363;28;20458;-73
2022/05/17 06:43:23;;;;;;;13.35;5.20;;;16.70;99.90;;;;;;4998229;28;20037;-76
2022/05/17 06:45:49;;;;;;;23.45;6.28;;;16.90;99.90;;;;;;5014846;28;20023;-78
2022/05/17 06:48:14;;;;;;;10.60;5.80;;;16.90;99.90;;;;;;4998057;28;20474;-78
2022/05/17 06:50:40;;;;;;;13.35;5.95;;;16.90;99.90;;;;;;5016356;28;20064;-78
2022/05/17 06:53:07;;;;;;;10.27;6.05;;;17.00;99.90;;;;;;4997296;28;20117;-78
2022/05/17 06:55:34;;;;;;;17.17;5.32;;;17.10;99.90;;;;;;4997710;28;20375;-81
2022/05/17 06:58:02;;;;;;;12.77;5.85;;;17.20;99.90;;;;;;5014156;28;20100;-77
2022/05/17 07:00:28;;;;;;;22.88;6.38;;;17.30;99.90;;;;;;5011524;28;20037;-77
2022/05/17 07:02:53;;;;;;;11.95;5.40;;;17.40;99.90;;;;;;5014734;28;20034;-77
2022/05/17 07:05:22;;;;;;;15.80;6.15;;;17.40;99.90;;;;;;5014328;28;20046;-78
2022/05/17 07:07:47;;;;;;;15.70;5.97;;;17.50;99.90;;;;;;5012425;28;20498;-75
2022/05/17 07:13:10;;;;;;;;;;;17.40;99.90;;;;;;5014236;28;20100;-77
2022/05/17 07:15:38;;;;;;;19.40;5.63;;;17.50;99.90;;;;;;5015103;28;19909;-76
2022/05/17 07:18:05;;;;;;;12.65;5.78;;;17.60;99.90;;;;;;5014848;28;20044;-74
2022/05/17 07:20:31;;;;;;;11.98;5.20;;;17.60;99.90;;;;;;5014244;28;20113;-74
2022/05/17 07:22:57;;;;;;;12.77;4.97;;;17.60;99.90;;;;;;5012867;28;20025;-76
2022/05/17 07:25:23;;;;;;;18.65;5.65;;;17.60;99.90;;;;;;5012843;28;20072;-73
2022/05/17 07:27:51;;;;;;;17.77;5.35;;;17.60;99.90;;;;;;5013789;28;20116;-72
2022/05/17 07:30:16;;;;;;;9.60;5.65;;;17.60;99.90;;;;;;5014924;28;20053;-72
2022/05/17 07:32:42;;;;;;;14.43;5.43;;;17.60;99.90;;;;;;5014370;28;20034;-69
2022/05/17 07:35:08;;;;;;;11.75;5.07;;;17.80;99.90;;;;;;5013759;28;20052;-70
2022/05/17 07:37:34;;;;;;;27.75;6.60;;;17.80;99.90;;;;;;4978076;28;1082626;-70
2022/05/17 07:40:00;;;;;;;15.70;6.07;;;17.90;99.90;;;;;;5015435;28;20031;-70
2022/05/17 07:42:26;;;;;;;22.85;6.13;;;18.00;99.90;;;;;;4997170;28;20110;-69
2022/05/17 07:44:52;;;;;;;13.95;6.13;;;18.00;99.90;;;;;;5016331;28;20021;-73
2022/05/17 07:47:18;;;;;;;17.70;6.18;;;18.00;99.90;;;;;;5015033;28;20132;-72
2022/05/17 07:49:44;;;;;;;18.75;5.55;;;18.10;99.90;;;;;;5015116;28;20089;-70
2022/05/17 07:52:12;;;;;;;23.00;6.38;;;18.20;99.90;;;;;;5014440;28;20145;-79
2022/05/17 07:54:38;;;;;;;14.40;5.05;;;18.20;99.90;;;;;;4997300;28;20053;-70
2022/05/17 07:57:07;;;;;;;13.77;5.65;;;18.20;99.90;;;;;;5013527;28;20038;-72
2022/05/17 07:59:32;;;;;;;13.23;5.68;;;18.30;99.90;;;;;;5016594;28;20088;-71
2022/05/17 08:01:58;;;;;;;14.25;5.95;;;18.30;99.90;;;;;;5014364;28;20124;-72
2022/05/17 08:04:24;;;;;;;11.02;5.95;;;18.30;99.90;;;;;;5017135;28;20104;-71
2022/05/17 08:06:53;;;;;;;14.10;5.70;;;18.30;99.90;;;;;;5008381;28;20529;-74
2022/05/17 08:09:18;;;;;;;18.48;6.03;;;18.30;99.90;;;;;;5016005;28;20030;-70
2022/05/17 08:11:44;;;;;;;16.73;6.00;;;18.20;99.90;;;;;;5015638;28;20089;-71
2022/05/17 08:14:15;;;;;;;11.95;6.50;;;18.30;99.90;;;;;;5016137;28;20030;-72
2022/05/17 08:16:42;;;;;;;15.50;7.22;;;18.20;99.90;;;;;;5014333;28;20037;-71
2022/05/17 08:19:10;;;;;;;17.92;6.85;;;18.20;99.90;;;;;;5014339;28;20046;-74
2022/05/17 08:21:36;;;;;;;15.43;6.82;;;18.20;99.90;;;;;;5015125;28;20030;-71
2022/05/17 08:24:02;;;;;;;25.10;7.80;;;18.20;99.90;;;;;;5013327;28;20146;-71
2022/05/17 08:29:24;;;;;;;15.00;6.70;;;18.30;99.90;;;;;;5013057;28;20041;-70
2022/05/17 08:34:35;;;;;;;;;;;18.40;99.90;;;;;;5014608;28;20029;-69
2022/05/17 08:37:00;;;;;;;20.33;6.10;;;18.50;99.90;;;;;;5013201;28;19925;-68
2022/05/17 08:39:27;;;;;;;20.45;7.88;;;18.50;99.90;;;;;;5013759;28;20375;-69
2022/05/17 08:42:02;;;;;;;19.00;8.02;;;18.50;99.90;;;;;;5014061;28;20026;-72
2022/05/17 08:44:49;;;;;;;18.90;7.93;;;18.50;99.90;;;;;;5014697;28;20037;-71
2022/05/17 08:47:26;;;;;;;15.85;8.13;;;18.50;99.90;;;;;;5014999;28;20061;-69
2022/05/17 08:50:07;;;;;;;15.65;7.40;;;18.60;99.90;;;;;;5014244;28;20094;-69
2022/05/17 08:52:36;;;;;;;27.85;7.32;;;18.60;99.90;;;;;;5013768;28;20034;-68
2022/05/17 08:55:26;;;;;;;24.38;8.15;;;18.70;99.90;;;;;;5014521;28;20038;-71
2022/05/17 08:58:03;;;;;;;15.55;8.45;;;18.80;99.90;;;;;;5013034;28;20038;-69
2022/05/17 09:00:38;;;;;;;24.05;7.53;;;18.90;99.90;;;;;;5013904;28;20069;-70
2022/05/17 09:03:50;;;;;;;17.60;6.20;;;19.10;99.90;;;;;;5012814;28;20052;-72
2022/05/17 09:06:25;;;;;;;14.25;6.10;;;19.10;99.90;;;;;;4993923;28;20046;-71
2022/05/17 09:08:58;;;;;;;10.98;5.90;;;19.30;99.90;;;;;;5013020;28;20033;-72
2022/05/17 09:11:34;;;;;;;14.88;7.22;;;19.60;99.90;;;;;;5010084;28;20160;-71
2022/05/17 09:14:07;;;;;;;22.38;7.97;;;19.90;99.90;;;;;;5014806;28;20090;-70
2022/05/17 09:16:38;;;;;;;14.27;7.05;;;20.00;99.90;;;;;;5013830;28;20092;-68
2022/05/17 09:19:04;;;;;;;16.25;6.40;;;19.90;99.90;;;;;;5013601;28;20092;-70
2022/05/17 09:21:36;;;;;;;21.50;8.20;;;19.90;99.90;;;;;;5013281;28;20479;-69
2022/05/17 09:24:06;;;;;;;17.48;9.00;;;19.90;99.90;;;;;;5013735;28;20428;-69
2022/05/17 09:26:33;;;;;;;21.20;8.07;;;19.90;99.90;;;;;;5014462;28;20037;-68
2022/05/17 09:29:14;;;;;;;15.82;7.40;;;19.90;99.90;;;;;;5013535;28;20053;-69
2022/05/17 09:31:46;;;;;;;16.85;7.28;;;19.90;99.90;;;;;;5013156;28;20026;-69
2022/05/17 09:34:11;;;;;;;16.70;7.60;;;19.80;99.90;;;;;;5013954;28;20034;-69
2022/05/17 09:36:53;;;;;;;15.35;7.15;;;19.90;99.90;;;;;;5013294;28;20090;-69
2022/05/17 09:39:26;;;;;;;13.43;7.10;;;19.90;99.90;;;;;;5012331;28;20023;-69
2022/05/17 09:42:04;;;;;;;14.63;6.45;;;20.00;99.90;;;;;;5013551;28;20032;-68
2022/05/17 09:44:33;;;;;;;16.27;7.80;;;20.10;99.90;;;;;;4996351;28;20500;-69
2022/05/17 09:47:02;;;;;;;14.60;7.05;;;20.20;99.90;;;;;;5013122;28;20030;-69
2022/05/17 09:52:32;;;;;;;12.93;6.47;;;20.50;99.90;;;;;;5014590;28;20112;-70
2022/05/17 09:55:20;;;;;;;18.70;7.53;;;20.60;99.90;;;;;;5014894;28;20069;-70
2022/05/17 09:58:04;;;;;;;15.40;7.32;;;20.70;99.90;;;;;;5015143;28;20092;-70
2022/05/17 10:00:41;;;;;;;19.27;6.95;;;20.70;99.90;;;;;;5012283;28;20022;-69
2022/05/17 10:03:28;;;;;;;15.15;6.90;;;20.70;99.90;;;;;;5012720;28;20035;-69
2022/05/17 10:06:07;;;;;;;20.40;8.43;;;20.70;99.90;;;;;;5011385;28;20049;-69
2022/05/17 10:09:25;;;;;;;23.23;8.07;;;20.80;99.90;;;;;;5011933;28;20038;-75
2022/05/17 10:12:05;;;;;;;16.60;6.93;;;20.60;99.90;;;;;;4923347;29;20091;-70
2022/05/17 10:14:37;;;;;;;18.80;6.97;;;20.60;99.90;;;;;;4922689;29;20148;-70
2022/05/17 10:17:42;;;;;;;17.23;7.88;;;20.60;99.90;;;;;;4984239;28;20065;-70
2022/05/17 10:20:16;;;;;;;18.80;7.65;;;20.60;99.90;;;;;;5000543;28;20042;-70
2022/05/17 10:23:15;;;;;;;17.88;7.47;;;20.80;99.90;;;;;;5013550;28;20038;-73
2022/05/17 10:25:50;;;;;;;11.63;6.70;;;21.10;99.90;;;;;;5012166;28;20573;-72
2022/05/17 10:28:38;;;;;;;18.95;6.80;;;21.40;99.90;;;;;;5012909;28;20121;-71
2022/05/17 10:31:24;;;;;;;12.35;6.57;;;21.50;99.90;;;;;;5012383;28;20033;-71
2022/05/17 10:33:49;;;;;;;13.00;6.45;;;21.40;99.90;;;;;;4994371;28;20029;-72
2022/05/17 10:36:25;;;;;;;17.92;7.07;;;21.40;99.90;;;;;;5010974;28;20085;-71
2022/05/17 10:39:21;;;;;;;11.63;6.57;;;21.70;99.90;;;;;;5012262;28;20018;-74
2022/05/17 10:41:47;;;;;;;15.02;6.65;;;22.00;99.90;;;;;;5012156;28;20080;-76
2022/05/17 10:44:19;;;;;;;12.25;5.90;;;22.20;99.90;;;;;;5012401;28;20018;-74
2022/05/17 10:46:51;;;;;;;8.20;4.80;;;22.40;99.90;;;;;;5012390;28;20025;-74
2022/05/17 10:49:38;;;;;;;13.85;5.75;;;22.50;99.90;;;;;;5012642;28;20029;-73
2022/05/17 10:52:26;;;;;;;13.25;5.70;;;22.60;99.90;;;;;;5012171;28;20034;-72
2022/05/17 10:55:02;;;;;;;14.40;6.13;;;22.60;99.90;;;;;;5012497;28;20030;-74
2022/05/17 10:57:47;;;;;;;12.48;5.50;;;22.40;99.90;;;;;;5012497;28;20049;-73
2022/05/17 11:00:18;;;;;;;9.20;5.10;;;22.20;99.90;;;;;;5012857;28;20029;-72
2022/05/17 11:03:21;;;;;;;10.57;5.65;;;22.10;99.90;;;;;;5015021;28;20053;-73
2022/05/17 11:06:23;;;;;;;8.40;5.13;;;22.20;99.90;;;;;;5015658;28;20026;-74
2022/05/17 11:08:58;;;;;;;12.32;4.75;;;22.40;99.90;;;;;;5015115;28;20022;-72
2022/05/17 11:12:06;;;;;;;13.32;5.38;;;22.50;99.90;;;;;;5015755;28;20034;-72
2022/05/17 11:14:37;;;;;;;10.10;5.85;;;22.70;99.90;;;;;;5015867;28;20103;-71
2022/05/17 11:17:20;;;;;;;10.30;5.50;;;22.70;99.90;;;;;;5016127;28;20057;-71
2022/05/17 11:19:56;;;;;;;14.20;5.60;;;22.50;99.90;;;;;;5016785;28;20038;-71
2022/05/17 11:22:46;;;;;;;9.43;5.10;;;22.30;99.90;;;;;;5015491;28;20541;-72
2022/05/17 11:25:27;;;;;;;8.00;4.47;;;22.20;99.90;;;;;;5000835;28;20821;-71
2022/05/17 11:28:11;;;;;;;14.57;5.13;;;22.40;99.90;;;;;;5016627;28;20022;-71
2022/05/17 11:30:55;;;;;;;10.48;4.60;;;22.70;99.90;;;;;;5015586;28;20023;-71
2022/05/17 11:33:23;;;;;;;9.03;4.03;;;23.00;99.90;;;;;;5015763;28;20042;-71
2022/05/17 11:35:58;;;;;;;11.60;4.53;;;23.40;99.90;;;;;;5014121;28;20282;-71
2022/05/17 11:38:32;;;;;;;11.15;4.00;;;23.50;99.90;;;;;;5014692;28;20037;-70
2022/05/17 11:41:00;;;;;;;17.05;4.70;;;23.30;99.90;;;;;;5015430;28;20038;-70
2022/05/17 11:43:40;;;;;;;8.88;4.38;;;23.10;99.90;;;;;;5015174;28;20461;-70
2022/05/17 11:46:29;;;;;;;14.90;4.30;;;23.10;99.90;;;;;;4996587;28;20113;-71
2022/05/17 11:49:00;;;;;;;6.00;3.50;;;23.10;99.90;;;;;;5015071;28;20034;-69
2022/05/17 11:51:33;;;;;;;5.72;3.13;;;23.20;99.90;;;;;;5015156;28;20113;-69
2022/05/17 11:54:12;;;;;;;7.95;3.33;;;23.40;99.90;;;;;;5015209;28;20433;-70
2022/05/17 11:56:39;;;;;;;4.32;2.63;;;23.60;99.90;;;;;;5015103;28;20091;-71
2022/05/17 11:59:12;;;;;;;10.88;3.15;;;23.90;99.90;;;;;;5014933;28;20095;-72
2022/05/17 12:01:38;;;;;;;7.95;2.95;;;24.20;99.90;;;;;;5014792;28;20393;-72
2022/05/17 12:04:06;;;;;;;10.20;3.28;;;24.50;99.90;;;;;;5016317;28;20053;-71
2022/05/17 12:06:41;;;;;;;7.63;3.60;;;24.60;99.90;;;;;;5015503;28;20036;-71
2022/05/17 12:09:27;;;;;;;6.22;3.33;;;24.90;99.90;;;;;;5014732;28;20125;-73
2022/05/17 12:12:12;;;;;;;10.20;2.85;;;25.30;99.90;;;;;;5014670;28;20022;-70
2022/05/17 12:14:49;;;;;;;5.45;2.60;;;25.30;99.90;;;;;;5013708;28;20114;-71
2022/05/17 12:17:23;;;;;;;5.07;2.72;;;25.50;99.90;;;;;;5014400;28;20093;-70
2022/05/17 12:20:10;;;;;;;4.57;2.70;;;25.70;99.90;;;;;;5014084;28;20015;-71
2022/05/17 12:22:48;;;;;;;5.95;2.70;;;25.90;99.90;;;;;;5014712;28;20057;-69
2022/05/17 12:25:25;;;;;;;4.88;2.67;;;26.00;99.90;;;;;;5014569;28;20076;-68
2022/05/17 12:27:51;;;;;;;3.88;2.30;;;26.10;99.90;;;;;;5014263;28;20033;-68
2022/05/17 12:33:19;;;;;;;13.85;3.17;;;26.40;99.90;;;;;;5014932;28;20061;-68
2022/05/17 12:35:47;;;;;;;7.72;2.47;;;26.40;99.90;;;;;;5014731;28;20026;-68
2022/05/17 12:44:22;;;;;;;6.32;2.85;;;25.70;99.90;;;;;;5016003;28;20036;-71
2022/05/17 12:46:51;;;;;;;6.22;2.50;;;25.90;99.90;;;;;;5014252;28;20037;-69
2022/05/17 12:49:26;;;;;;;6.80;2.65;;;26.00;99.90;;;;;;5013833;28;20023;-70
2022/05/17 12:52:01;;;;;;;5.10;2.15;;;25.60;99.90;;;;;;5014075;28;20036;-69
2022/05/17 12:54:31;;;;;;;7.05;2.25;;;25.20;99.90;;;;;;5014919;28;20030;-70
2022/05/17 12:56:58;;;;;;;9.38;2.22;;;24.80;99.90;;;;;;5013930;28;20049;-69
2022/05/17 12:59:34;;;;;;;6.13;2.63;;;24.60;99.90;;;;;;5013322;28;20535;-70
2022/05/17 13:02:02;;;;;;;4.97;2.58;;;24.50;99.90;;;;;;5013823;28;20081;-71
2022/05/17 13:04:34;;;;;;;5.43;2.05;;;24.90;99.90;;;;;;5014382;28;20054;-69
2022/05/17 13:07:14;;;;;;;7.43;2.08;;;25.10;99.90;;;;;;5013901;28;20040;-69
2022/05/17 13:09:56;;;;;;;4.20;1.88;;;25.50;99.90;;;;;;5003330;28;20022;-70
2022/05/17 13:12:24;;;;;;;3.65;1.80;;;25.90;99.90;;;;;;5015304;28;20061;-70
2022/05/17 13:14:51;;;;;;;4.90;2.13;;;26.20;99.90;;;;;;5013799;28;20025;-70